»·PEaware :: N6LB KPSP-KPHX

N6LB :: KPSP-KPHX

FLIGHT INFORMATION

Flight Status: Arrived
Operator: Privately registered:
United States
More flights under this callsign
Pilot: Luke B. (23849)
Aircraft: SAAB 340
(SF34)
More flights by this aircraft type
Origin: KPSP Palm Springs Intl
United States
Destination: KPHX Phoenix Sky Harbor Intl
United States
More flights between these airports :: More routes between these airports
Route: +
File this flight plan on PilotEdge
Remarks:
Altitude:
(Current/Filed)
0ft
Speed:
(Current/Filed)
0kts
Departed: 04-May-19 11:00 AM
Arrived: 04-May-19 12:10 PM
Distance/Time
Traveled:
226nm/1:10
Distance/Time
To Go:
Arrived

Flight Plot

Page will automatically refresh every two minutes.


Map Options




Map Legend


Flown Route
Filed Route
Departure Airport
Arrival Airport
Navaid (VOR, NDB)
Fix

Horizontal Profiles

Position Reports

Time Latitude Longitude Heading Altitude Ground
Speed
04-May-19 10:38 33.823695 -116.506215 231 431ft 0kts
04-May-19 10:39 33.823695 -116.506215 231 431ft 0kts
04-May-19 10:40 33.823695 -116.506215 231 431ft 0kts
04-May-19 10:41 33.823695 -116.506215 231 431ft 0kts
04-May-19 10:42 33.823695 -116.506215 231 431ft 0kts
04-May-19 10:43 33.823683 -116.506234 231 431ft 0kts
04-May-19 10:44 33.823683 -116.506234 231 431ft 0kts
04-May-19 10:45 33.823683 -116.506234 231 431ft 0kts
04-May-19 10:46 33.823683 -116.506234 231 431ft 0kts
04-May-19 10:47 33.824072 -116.505637 233 431ft 3kts
04-May-19 10:48 33.824090 -116.505586 215 431ft 0kts
04-May-19 10:49 33.823662 -116.505376 133 431ft 0kts
04-May-19 10:50 33.823590 -116.505291 136 431ft 0kts
04-May-19 10:51 33.822242 -116.503120 138 431ft 12kts
04-May-19 10:52 33.820033 -116.501187 139 431ft 7kts
04-May-19 10:53 33.819128 -116.500338 144 431ft 0kts
04-May-19 10:54 33.818494 -116.499013 84 431ft 0kts
04-May-19 10:55 33.818494 -116.499013 84 431ft 0kts
04-May-19 10:56 33.818497 -116.498959 85 431ft 0kts
04-May-19 10:57 33.819921 -116.498951 324 431ft 0kts
04-May-19 10:58 33.820105 -116.499112 323 431ft 17kts
04-May-19 10:59 33.840428 -116.517395 321 507ft 120kts
04-May-19 11:00 33.873105 -116.551523 313 2556ft 173kts
04-May-19 11:01 33.909946 -116.587294 337 4871ft 184kts
04-May-19 11:02 33.958566 -116.590637 11 7011ft 179kts
04-May-19 11:03 33.964393 -116.538934 113 8652ft 188kts
04-May-19 11:04 33.948240 -116.495578 116 9729ft 192kts
04-May-19 11:05 33.925431 -116.436451 116 11180ft 199kts
04-May-19 11:06 33.906119 -116.373306 106 12517ft 204kts
04-May-19 11:07 33.893799 -116.305423 106 13708ft 208kts
04-May-19 11:08 33.878008 -116.232842 106 12952ft 235kts
04-May-19 11:09 33.865457 -116.155177 99 13501ft 236kts
04-May-19 11:10 33.852520 -116.076167 105 13184ft 238kts
04-May-19 11:11 33.867664 -116.006621 44 13426ft 226kts
04-May-19 11:12 33.875781 -115.936784 122 13437ft 225kts
04-May-19 11:13 33.840166 -115.879649 130 13431ft 241kts
04-May-19 11:14 33.798656 -115.814653 130 13428ft 248kts
04-May-19 11:15 33.759009 -115.746182 110 13435ft 254kts
04-May-19 11:16 33.751704 -115.660516 95 13428ft 258kts
04-May-19 11:17 33.746246 -115.573989 95 13428ft 259kts
04-May-19 11:18 33.740812 -115.487636 95 13428ft 259kts
04-May-19 11:19 33.735351 -115.400833 95 13428ft 259kts
04-May-19 11:20 33.729866 -115.313703 96 13426ft 259kts
04-May-19 11:21 33.724427 -115.227277 96 13427ft 260kts
04-May-19 11:22 33.718965 -115.140481 96 13421ft 260kts
04-May-19 11:23 33.713504 -115.053377 96 13411ft 260kts
04-May-19 11:24 33.708055 -114.966692 95 13402ft 261kts
04-May-19 11:25 33.702586 -114.879497 95 13399ft 260kts
04-May-19 11:26 33.697175 -114.792636 95 13400ft 260kts
04-May-19 11:27 33.691798 -114.705787 95 13400ft 260kts
04-May-19 11:28 33.686459 -114.619061 95 13401ft 260kts
04-May-19 11:29 33.681143 -114.532189 95 13401ft 260kts
04-May-19 11:30 33.675891 -114.445561 95 13400ft 260kts
04-May-19 11:31 33.670788 -114.358763 95 13401ft 260kts
04-May-19 11:32 33.665718 -114.271519 95 13398ft 260kts
04-May-19 11:33 33.660793 -114.185663 95 13406ft 251kts
04-May-19 11:34 33.656285 -114.104415 95 13429ft 236kts
04-May-19 11:35 33.652202 -114.027870 95 13449ft 222kts
04-May-19 11:36 33.648628 -113.956239 95 13459ft 208kts
04-May-19 11:37 33.644905 -113.889096 97 13459ft 193kts
04-May-19 11:38 33.638667 -113.827530 100 13459ft 179kts
04-May-19 11:39 33.630092 -113.755882 100 13474ft 246kts
04-May-19 11:40 33.619371 -113.670408 100 13467ft 267kts
04-May-19 11:41 33.608038 -113.580714 100 13465ft 272kts
04-May-19 11:42 33.596696 -113.490906 100 13464ft 274kts
04-May-19 11:43 33.585241 -113.400407 100 13463ft 274kts
04-May-19 11:44 33.576615 -113.332117 100 13459ft 275kts
04-May-19 11:45 33.565306 -113.242004 100 13447ft 271kts
04-May-19 11:46 33.553878 -113.152882 101 13346ft 272kts
04-May-19 11:47 33.542088 -113.066940 101 12769ft 233kts
04-May-19 11:48 33.558582 -113.002793 48 11931ft 197kts
04-May-19 11:49 33.592681 -112.955831 48 11098ft 177kts
04-May-19 11:50 33.625868 -112.911192 48 10332ft 190kts
04-May-19 11:51 33.659973 -112.860106 73 9568ft 201kts
04-May-19 11:52 33.654694 -112.792986 106 8576ft 210kts
04-May-19 11:53 33.638591 -112.724315 107 7492ft 217kts
04-May-19 11:54 33.593583 -112.685831 179 6416ft 213kts
04-May-19 11:55 33.534127 -112.686064 180 5359ft 212kts
04-May-19 11:56 33.477574 -112.685043 164 4848ft 193kts
04-May-19 11:57 33.451065 -112.636229 99 4555ft 186kts
04-May-19 11:58 33.443895 -112.575997 99 4070ft 179kts
04-May-19 11:59 33.436146 -112.511296 99 3617ft 207kts
04-May-19 12:00 33.427735 -112.442038 99 3347ft 206kts
04-May-19 12:01 33.419742 -112.375425 99 3345ft 199kts
04-May-19 12:02 33.416830 -112.316893 86 3041ft 148kts
04-May-19 12:03 33.421159 -112.271581 86 2143ft 134kts
04-May-19 12:04 33.425219 -112.222103 85 2516ft 173kts
04-May-19 12:05 33.432225 -112.164440 79 2518ft 168kts
04-May-19 12:06 33.428292 -112.111137 91 2082ft 146kts
04-May-19 12:07 33.428808 -112.064349 87 1567ft 124kts
04-May-19 12:09 33.428818 -112.024357 87 1130ft 115kts
04-May-19 12:10 33.428699 -112.016521 190 1114ft 2kts
04-May-19 12:11 33.425622 -112.017415 180 1114ft 18kts
04-May-19 12:12 33.425086 -112.016674 88 1114ft 0kts
04-May-19 12:13 33.425086 -112.016672 88 1114ft 0kts
04-May-19 12:14 33.425086 -112.016672 88 1114ft 0kts
04-May-19 12:15 33.425086 -112.016672 87 1114ft 0kts
04-May-19 12:16 33.425086 -112.016672 87 1114ft 0kts
04-May-19 12:17 33.425086 -112.016672 87 1114ft 0kts

Navigation Log

Ident Type
Flight plan parsing failed, navigation log unavailable